Meath Environmental Platform

Observations for Trim Market St

Time AQI Temp °C Hum % Pres Pa CO μg/m³ H₂S μg/m³ NO μg/m³ NO₂ μg/m³ O₃ μg/m³ SO₂ μg/m³ PM1 μg/m³ PM2.5 μg/m³ PM10 μg/m³
Friday 10 July 2026
00:18 1 20.7 70 53,236 0 0 0 8 7.37 0 2.14 3.53 5.65
00:17 1 20.7 70 53,198 0 0 0 8.39 11.32 0 2.85 4.01 6.28
00:16 1 20.7 70 53,157 0 0 0.01 8.1 6.49 0 1.43 3.04 5.65
00:15 1 20.7 70 53,165 0.15 0 1.05 12.9 2.23 0 1.43 3.53 5.65
00:14 1 20.7 70 53,199 0.08 0 0 11.81 12.49 0 2.14 2.56 5.03
00:13 1 20.8 70 53,294 0 0 0 5.19 12.65 0 2.85 4.51 6.9
00:09 1 20.8 70 53,376 0 0 0 6.9 9.12 0 2.14 3.06 5.02
00:08 1 20.8 70 53,443 0 0.15 0 13.62 9.41 0 2.14 3.06 5.02
00:07 1 20.8 70 53,583 0 0 0 10.23 6.99 0 2.14 4.04 6.27
Thursday 9 July 2026
23:59 1 21 68 55,353 0 1.7 1.75 19.02 8.8 0 3.56 5.08 7.53
23:55 1 21 68 55,531 0 0 0 8.23 9.5 0 2.14 3.62 5.62
23:54 1 21.1 68 55,579 0 0 0 8.02 7.99 0 2.14 3.63 6.25
23:53 1 21.1 68 55,620 0 0 0 7.52 8.01 0 2.14 4.12 6.89
23:52 1 21.1 68 55,674 0 0 0 9.03 9.67 0 2.14 4.12 6.25
23:51 1 21.1 68 55,731 0 0 0 6.73 9.95 0 2.14 2.65 4.34
23:50 1 21.1 68 55,781 0 0 0 11.14 12.45 0 2.85 4.13 6.25
23:49 1 21.2 68 55,858 0 0 0 8.22 12.71 0 1.43 3.15 4.97
23:48 1 21.2 68 55,918 0 0 0 11.14 13.57 0 1.43 2.67 4.33
23:46 1 21.2 68 56,003 0 0 0 10.45 12.16 0 2.14 2.67 4.33
23:43 1 21.3 68 56,020 0 0 0 7.63 7.05 0 2.14 3.17 5.61